sensor_id;sensor_type;location;lat;lon;timestamp;P1;durP1;ratioP1;P2;durP2;ratioP2
25345;SDS011;13300;51.032;3.710;2022-07-04T00:00:27;4.47;;;2.05;;
25345;SDS011;13300;51.032;3.710;2022-07-04T00:02:53;6.82;;;2.38;;
25345;SDS011;13300;51.032;3.710;2022-07-04T00:05:19;8.65;;;2.10;;
25345;SDS011;13300;51.032;3.710;2022-07-04T00:07:45;5.72;;;2.10;;
25345;SDS011;13300;51.032;3.710;2022-07-04T00:10:13;6.32;;;2.00;;
25345;SDS011;13300;51.032;3.710;2022-07-04T00:12:41;7.50;;;2.13;;
25345;SDS011;13300;51.032;3.710;2022-07-04T00:15:07;4.88;;;2.47;;
25345;SDS011;13300;51.032;3.710;2022-07-04T00:17:33;5.15;;;2.20;;
25345;SDS011;13300;51.032;3.710;2022-07-04T00:20:00;5.10;;;2.35;;
25345;SDS011;13300;51.032;3.710;2022-07-04T00:22:26;7.90;;;2.47;;
25345;SDS011;13300;51.032;3.710;2022-07-04T00:24:52;4.20;;;2.20;;
25345;SDS011;13300;51.032;3.710;2022-07-04T00:27:17;4.93;;;2.45;;
25345;SDS011;13300;51.032;3.710;2022-07-04T00:29:43;8.45;;;2.33;;
25345;SDS011;13300;51.032;3.710;2022-07-04T00:32:09;8.00;;;2.40;;
25345;SDS011;13300;51.032;3.710;2022-07-04T00:34:34;6.20;;;2.65;;
25345;SDS011;13300;51.032;3.710;2022-07-04T00:37:00;8.00;;;2.95;;
25345;SDS011;13300;51.032;3.710;2022-07-04T00:39:26;6.55;;;2.50;;
25345;SDS011;13300;51.032;3.710;2022-07-04T00:41:52;9.52;;;3.10;;
25345;SDS011;13300;51.032;3.710;2022-07-04T00:44:17;12.30;;;3.22;;
25345;SDS011;13300;51.032;3.710;2022-07-04T00:46:44;8.68;;;3.03;;
25345;SDS011;13300;51.032;3.710;2022-07-04T00:49:11;6.25;;;3.50;;
25345;SDS011;13300;51.032;3.710;2022-07-04T00:51:38;4.63;;;2.63;;
25345;SDS011;13300;51.032;3.710;2022-07-04T00:54:05;4.63;;;2.70;;
25345;SDS011;13300;51.032;3.710;2022-07-04T00:56:32;4.53;;;2.88;;
25345;SDS011;13300;51.032;3.710;2022-07-04T00:59:01;6.93;;;3.10;;
25345;SDS011;13300;51.032;3.710;2022-07-04T01:01:27;9.35;;;2.97;;
25345;SDS011;13300;51.032;3.710;2022-07-04T01:03:53;8.88;;;3.03;;
25345;SDS011;13300;51.032;3.710;2022-07-04T01:06:19;5.00;;;3.00;;
25345;SDS011;13300;51.032;3.710;2022-07-04T01:08:45;4.65;;;3.03;;
25345;SDS011;13300;51.032;3.710;2022-07-04T01:11:11;7.47;;;2.95;;
25345;SDS011;13300;51.032;3.710;2022-07-04T01:13:37;4.75;;;2.78;;
25345;SDS011;13300;51.032;3.710;2022-07-04T01:16:05;5.80;;;2.70;;
25345;SDS011;13300;51.032;3.710;2022-07-04T01:18:31;4.65;;;2.70;;
25345;SDS011;13300;51.032;3.710;2022-07-04T01:20:57;3.83;;;2.75;;
25345;SDS011;13300;51.032;3.710;2022-07-04T01:23:23;5.15;;;2.45;;
25345;SDS011;13300;51.032;3.710;2022-07-04T01:25:48;9.48;;;3.08;;
25345;SDS011;13300;51.032;3.710;2022-07-04T01:28:15;10.30;;;3.05;;
25345;SDS011;13300;51.032;3.710;2022-07-04T01:30:45;7.53;;;2.67;;
25345;SDS011;13300;51.032;3.710;2022-07-04T01:33:11;10.23;;;3.20;;
25345;SDS011;13300;51.032;3.710;2022-07-04T01:35:36;7.60;;;2.90;;
25345;SDS011;13300;51.032;3.710;2022-07-04T01:38:02;5.03;;;2.70;;
25345;SDS011;13300;51.032;3.710;2022-07-04T01:40:28;7.28;;;2.85;;
25345;SDS011;13300;51.032;3.710;2022-07-04T01:42:54;5.65;;;2.80;;
25345;SDS011;13300;51.032;3.710;2022-07-04T01:45:20;6.72;;;3.05;;
25345;SDS011;13300;51.032;3.710;2022-07-04T01:47:45;4.65;;;2.67;;
25345;SDS011;13300;51.032;3.710;2022-07-04T01:50:11;7.30;;;2.75;;
25345;SDS011;13300;51.032;3.710;2022-07-04T01:52:37;6.25;;;2.90;;
25345;SDS011;13300;51.032;3.710;2022-07-04T01:55:04;5.13;;;2.50;;
25345;SDS011;13300;51.032;3.710;2022-07-04T01:57:30;7.50;;;2.75;;
25345;SDS011;13300;51.032;3.710;2022-07-04T01:59:56;7.03;;;2.75;;
25345;SDS011;13300;51.032;3.710;2022-07-04T02:02:40;7.50;;;2.83;;
25345;SDS011;13300;51.032;3.710;2022-07-04T02:05:06;7.28;;;2.80;;
25345;SDS011;13300;51.032;3.710;2022-07-04T02:07:32;7.93;;;2.75;;
25345;SDS011;13300;51.032;3.710;2022-07-04T02:09:58;5.90;;;2.28;;
25345;SDS011;13300;51.032;3.710;2022-07-04T02:12:24;6.50;;;2.60;;
25345;SDS011;13300;51.032;3.710;2022-07-04T02:15:08;7.10;;;2.80;;
25345;SDS011;13300;51.032;3.710;2022-07-04T02:17:34;7.43;;;3.08;;
25345;SDS011;13300;51.032;3.710;2022-07-04T02:19:59;4.97;;;2.78;;
25345;SDS011;13300;51.032;3.710;2022-07-04T02:22:25;13.38;;;2.95;;
25345;SDS011;13300;51.032;3.710;2022-07-04T02:24:51;9.68;;;3.03;;
25345;SDS011;13300;51.032;3.710;2022-07-04T02:27:17;6.10;;;2.65;;
25345;SDS011;13300;51.032;3.710;2022-07-04T02:29:42;6.55;;;2.65;;
25345;SDS011;13300;51.032;3.710;2022-07-04T02:32:08;8.35;;;3.15;;
25345;SDS011;13300;51.032;3.710;2022-07-04T02:34:34;5.97;;;2.92;;
25345;SDS011;13300;51.032;3.710;2022-07-04T02:37:00;6.65;;;2.83;;
25345;SDS011;13300;51.032;3.710;2022-07-04T02:39:26;9.82;;;3.50;;
25345;SDS011;13300;51.032;3.710;2022-07-04T02:41:52;6.72;;;2.90;;
25345;SDS011;13300;51.032;3.710;2022-07-04T02:44:17;7.20;;;3.30;;
25345;SDS011;13300;51.032;3.710;2022-07-04T02:46:44;9.93;;;3.55;;
25345;SDS011;13300;51.032;3.710;2022-07-04T02:49:10;7.05;;;3.30;;
25345;SDS011;13300;51.032;3.710;2022-07-04T02:51:36;9.98;;;3.70;;
25345;SDS011;13300;51.032;3.710;2022-07-04T02:54:02;11.77;;;3.80;;
25345;SDS011;13300;51.032;3.710;2022-07-04T02:56:28;4.75;;;3.55;;
25345;SDS011;13300;51.032;3.710;2022-07-04T02:58:53;6.60;;;4.10;;
25345;SDS011;13300;51.032;3.710;2022-07-04T03:01:19;6.90;;;3.60;;
25345;SDS011;13300;51.032;3.710;2022-07-04T03:03:45;6.60;;;4.07;;
25345;SDS011;13300;51.032;3.710;2022-07-04T03:06:11;9.40;;;3.88;;
25345;SDS011;13300;51.032;3.710;2022-07-04T03:08:38;10.38;;;3.92;;
25345;SDS011;13300;51.032;3.710;2022-07-04T03:11:04;9.85;;;4.22;;
25345;SDS011;13300;51.032;3.710;2022-07-04T03:13:30;8.15;;;3.92;;
25345;SDS011;13300;51.032;3.710;2022-07-04T03:15:56;8.45;;;3.67;;
25345;SDS011;13300;51.032;3.710;2022-07-04T03:18:22;10.88;;;4.38;;
25345;SDS011;13300;51.032;3.710;2022-07-04T03:20:48;10.05;;;3.88;;
25345;SDS011;13300;51.032;3.710;2022-07-04T03:23:14;12.82;;;4.10;;
25345;SDS011;13300;51.032;3.710;2022-07-04T03:25:39;7.05;;;3.97;;
25345;SDS011;13300;51.032;3.710;2022-07-04T03:28:05;11.77;;;4.43;;
25345;SDS011;13300;51.032;3.710;2022-07-04T03:30:32;11.30;;;5.15;;
25345;SDS011;13300;51.032;3.710;2022-07-04T03:32:58;8.73;;;4.00;;
25345;SDS011;13300;51.032;3.710;2022-07-04T03:35:24;10.60;;;4.43;;
25345;SDS011;13300;51.032;3.710;2022-07-04T03:37:50;7.55;;;4.13;;
25345;SDS011;13300;51.032;3.710;2022-07-04T03:40:17;7.95;;;4.20;;
25345;SDS011;13300;51.032;3.710;2022-07-04T03:42:43;8.32;;;4.15;;
25345;SDS011;13300;51.032;3.710;2022-07-04T03:45:09;10.95;;;4.35;;
25345;SDS011;13300;51.032;3.710;2022-07-04T03:47:35;10.93;;;3.95;;
25345;SDS011;13300;51.032;3.710;2022-07-04T03:50:01;8.82;;;4.25;;
25345;SDS011;13300;51.032;3.710;2022-07-04T03:52:27;8.48;;;4.47;;
25345;SDS011;13300;51.032;3.710;2022-07-04T03:54:53;9.02;;;4.20;;
25345;SDS011;13300;51.032;3.710;2022-07-04T03:57:18;11.75;;;4.70;;
25345;SDS011;13300;51.032;3.710;2022-07-04T03:59:44;9.00;;;4.07;;
25345;SDS011;13300;51.032;3.710;2022-07-04T04:02:10;7.53;;;4.05;;
25345;SDS011;13300;51.032;3.710;2022-07-04T04:04:35;9.15;;;4.30;;
25345;SDS011;13300;51.032;3.710;2022-07-04T04:07:20;9.27;;;4.10;;
25345;SDS011;13300;51.032;3.710;2022-07-04T04:09:45;13.95;;;4.15;;
25345;SDS011;13300;51.032;3.710;2022-07-04T04:12:11;11.52;;;4.18;;
25345;SDS011;13300;51.032;3.710;2022-07-04T04:14:36;9.07;;;3.97;;
25345;SDS011;13300;51.032;3.710;2022-07-04T04:17:02;12.73;;;4.57;;
25345;SDS011;13300;51.032;3.710;2022-07-04T04:19:29;7.28;;;3.70;;
25345;SDS011;13300;51.032;3.710;2022-07-04T04:21:54;12.70;;;4.22;;
25345;SDS011;13300;51.032;3.710;2022-07-04T04:24:20;9.43;;;4.43;;
25345;SDS011;13300;51.032;3.710;2022-07-04T04:26:46;13.20;;;4.85;;
25345;SDS011;13300;51.032;3.710;2022-07-04T04:29:11;10.25;;;3.95;;
25345;SDS011;13300;51.032;3.710;2022-07-04T04:31:37;9.07;;;4.00;;
25345;SDS011;13300;51.032;3.710;2022-07-04T04:34:03;9.77;;;4.30;;
25345;SDS011;13300;51.032;3.710;2022-07-04T04:36:29;9.82;;;4.28;;
25345;SDS011;13300;51.032;3.710;2022-07-04T04:38:54;9.40;;;4.40;;
25345;SDS011;13300;51.032;3.710;2022-07-04T04:41:20;10.85;;;3.90;;
25345;SDS011;13300;51.032;3.710;2022-07-04T04:43:46;8.25;;;4.00;;
25345;SDS011;13300;51.032;3.710;2022-07-04T04:46:12;10.18;;;4.00;;
25345;SDS011;13300;51.032;3.710;2022-07-04T04:48:37;11.88;;;3.90;;
25345;SDS011;13300;51.032;3.710;2022-07-04T04:51:03;11.70;;;3.95;;
25345;SDS011;13300;51.032;3.710;2022-07-04T04:53:29;12.52;;;4.18;;
25345;SDS011;13300;51.032;3.710;2022-07-04T04:55:55;9.00;;;3.60;;
25345;SDS011;13300;51.032;3.710;2022-07-04T04:58:21;12.98;;;4.00;;
25345;SDS011;13300;51.032;3.710;2022-07-04T05:00:47;9.85;;;3.90;;
25345;SDS011;13300;51.032;3.710;2022-07-04T05:03:14;8.98;;;3.92;;
25345;SDS011;13300;51.032;3.710;2022-07-04T05:05:41;8.02;;;4.43;;
25345;SDS011;13300;51.032;3.710;2022-07-04T05:08:07;13.85;;;3.83;;
25345;SDS011;13300;51.032;3.710;2022-07-04T05:10:32;9.98;;;3.72;;
25345;SDS011;13300;51.032;3.710;2022-07-04T05:12:58;10.48;;;4.10;;
25345;SDS011;13300;51.032;3.710;2022-07-04T05:15:24;12.43;;;4.40;;
25345;SDS011;13300;51.032;3.710;2022-07-04T05:17:49;9.52;;;4.13;;
25345;SDS011;13300;51.032;3.710;2022-07-04T05:20:15;11.25;;;3.88;;
25345;SDS011;13300;51.032;3.710;2022-07-04T05:22:41;11.05;;;4.40;;
25345;SDS011;13300;51.032;3.710;2022-07-04T05:25:07;11.07;;;4.28;;
25345;SDS011;13300;51.032;3.710;2022-07-04T05:27:32;12.13;;;4.90;;
25345;SDS011;13300;51.032;3.710;2022-07-04T05:29:58;18.23;;;6.13;;
25345;SDS011;13300;51.032;3.710;2022-07-04T05:32:25;15.88;;;6.20;;
25345;SDS011;13300;51.032;3.710;2022-07-04T05:34:51;15.93;;;6.40;;
25345;SDS011;13300;51.032;3.710;2022-07-04T05:37:17;22.50;;;7.15;;
25345;SDS011;13300;51.032;3.710;2022-07-04T05:39:43;18.13;;;7.50;;
25345;SDS011;13300;51.032;3.710;2022-07-04T05:42:08;24.80;;;8.88;;
25345;SDS011;13300;51.032;3.710;2022-07-04T05:44:34;26.80;;;8.95;;
25345;SDS011;13300;51.032;3.710;2022-07-04T05:46:59;24.08;;;8.90;;
25345;SDS011;13300;51.032;3.710;2022-07-04T05:49:25;29.70;;;9.80;;
25345;SDS011;13300;51.032;3.710;2022-07-04T05:51:51;25.77;;;9.43;;
25345;SDS011;13300;51.032;3.710;2022-07-04T05:54:16;22.45;;;8.48;;
25345;SDS011;13300;51.032;3.710;2022-07-04T05:56:42;24.23;;;8.65;;
25345;SDS011;13300;51.032;3.710;2022-07-04T05:59:08;22.90;;;8.07;;
25345;SDS011;13300;51.032;3.710;2022-07-04T06:01:35;23.08;;;7.43;;
25345;SDS011;13300;51.032;3.710;2022-07-04T06:04:02;26.25;;;8.60;;
25345;SDS011;13300;51.032;3.710;2022-07-04T06:06:31;27.77;;;8.35;;
25345;SDS011;13300;51.032;3.710;2022-07-04T06:08:57;26.90;;;9.05;;
25345;SDS011;13300;51.032;3.710;2022-07-04T06:11:23;23.05;;;8.65;;
25345;SDS011;13300;51.032;3.710;2022-07-04T06:13:48;22.80;;;8.15;;
25345;SDS011;13300;51.032;3.710;2022-07-04T06:16:15;21.48;;;8.48;;
25345;SDS011;13300;51.032;3.710;2022-07-04T06:18:41;24.73;;;8.60;;
25345;SDS011;13300;51.032;3.710;2022-07-04T06:21:07;22.17;;;8.63;;
25345;SDS011;13300;51.032;3.710;2022-07-04T06:23:33;29.38;;;10.70;;
25345;SDS011;13300;51.032;3.710;2022-07-04T06:25:59;23.38;;;8.05;;
25345;SDS011;13300;51.032;3.710;2022-07-04T06:28:24;22.88;;;8.88;;
25345;SDS011;13300;51.032;3.710;2022-07-04T06:30:50;31.48;;;9.80;;
25345;SDS011;13300;51.032;3.710;2022-07-04T06:33:16;23.48;;;9.70;;
25345;SDS011;13300;51.032;3.710;2022-07-04T06:35:42;29.33;;;9.85;;
25345;SDS011;13300;51.032;3.710;2022-07-04T06:38:15;31.95;;;9.73;;
25345;SDS011;13300;51.032;3.710;2022-07-04T06:40:42;26.83;;;9.93;;
25345;SDS011;13300;51.032;3.710;2022-07-04T06:43:08;25.30;;;9.85;;
25345;SDS011;13300;51.032;3.710;2022-07-04T06:45:34;22.83;;;8.88;;
25345;SDS011;13300;51.032;3.710;2022-07-04T06:48:01;20.55;;;8.98;;
25345;SDS011;13300;51.032;3.710;2022-07-04T06:50:28;21.67;;;9.82;;
25345;SDS011;13300;51.032;3.710;2022-07-04T06:52:57;22.58;;;9.98;;
25345;SDS011;13300;51.032;3.710;2022-07-04T06:55:24;23.20;;;10.80;;
25345;SDS011;13300;51.032;3.710;2022-07-04T06:57:50;22.60;;;10.13;;
25345;SDS011;13300;51.032;3.710;2022-07-04T07:00:15;21.67;;;10.77;;
25345;SDS011;13300;51.032;3.710;2022-07-04T07:02:41;24.88;;;12.48;;
25345;SDS011;13300;51.032;3.710;2022-07-04T07:05:07;30.58;;;13.95;;
25345;SDS011;13300;51.032;3.710;2022-07-04T07:07:33;26.20;;;14.45;;
25345;SDS011;13300;51.032;3.710;2022-07-04T07:09:59;31.02;;;14.55;;
25345;SDS011;13300;51.032;3.710;2022-07-04T07:12:26;30.30;;;14.80;;
25345;SDS011;13300;51.032;3.710;2022-07-04T07:14:52;26.05;;;14.48;;
25345;SDS011;13300;51.032;3.710;2022-07-04T07:17:18;24.05;;;13.02;;
25345;SDS011;13300;51.032;3.710;2022-07-04T07:19:44;26.10;;;14.23;;
25345;SDS011;13300;51.032;3.710;2022-07-04T07:22:10;27.00;;;13.18;;
25345;SDS011;13300;51.032;3.710;2022-07-04T07:24:37;23.75;;;12.02;;
25345;SDS011;13300;51.032;3.710;2022-07-04T07:27:03;29.08;;;12.88;;
25345;SDS011;13300;51.032;3.710;2022-07-04T07:29:29;22.23;;;12.27;;
25345;SDS011;13300;51.032;3.710;2022-07-04T07:31:55;23.30;;;11.55;;
25345;SDS011;13300;51.032;3.710;2022-07-04T07:34:21;26.08;;;11.55;;
25345;SDS011;13300;51.032;3.710;2022-07-04T07:36:46;17.38;;;9.50;;
25345;SDS011;13300;51.032;3.710;2022-07-04T07:39:15;25.33;;;9.90;;
25345;SDS011;13300;51.032;3.710;2022-07-04T07:41:41;17.35;;;9.07;;
25345;SDS011;13300;51.032;3.710;2022-07-04T07:44:07;16.58;;;8.82;;
25345;SDS011;13300;51.032;3.710;2022-07-04T07:46:33;20.00;;;9.85;;
25345;SDS011;13300;51.032;3.710;2022-07-04T07:48:58;17.88;;;8.77;;
25345;SDS011;13300;51.032;3.710;2022-07-04T07:51:25;15.35;;;8.23;;
25345;SDS011;13300;51.032;3.710;2022-07-04T07:53:51;19.70;;;9.38;;
25345;SDS011;13300;51.032;3.710;2022-07-04T07:56:17;18.10;;;8.43;;
25345;SDS011;13300;51.032;3.710;2022-07-04T07:58:43;18.42;;;7.85;;
25345;SDS011;13300;51.032;3.710;2022-07-04T08:01:08;15.43;;;8.57;;
25345;SDS011;13300;51.032;3.710;2022-07-04T08:03:34;18.38;;;8.68;;
25345;SDS011;13300;51.032;3.710;2022-07-04T08:06:18;16.98;;;7.90;;
25345;SDS011;13300;51.032;3.710;2022-07-04T08:08:44;16.42;;;7.35;;
25345;SDS011;13300;51.032;3.710;2022-07-04T08:11:10;12.18;;;6.85;;
25345;SDS011;13300;51.032;3.710;2022-07-04T08:13:36;11.00;;;7.07;;
25345;SDS011;13300;51.032;3.710;2022-07-04T08:16:03;15.50;;;6.63;;
25345;SDS011;13300;51.032;3.710;2022-07-04T08:18:29;20.33;;;6.75;;
25345;SDS011;13300;51.032;3.710;2022-07-04T08:20:54;16.13;;;7.22;;
25345;SDS011;13300;51.032;3.710;2022-07-04T08:23:20;17.10;;;6.57;;
25345;SDS011;13300;51.032;3.710;2022-07-04T08:25:46;16.98;;;6.65;;
25345;SDS011;13300;51.032;3.710;2022-07-04T08:28:11;14.98;;;5.82;;
25345;SDS011;13300;51.032;3.710;2022-07-04T08:30:37;13.90;;;5.65;;
25345;SDS011;13300;51.032;3.710;2022-07-04T08:33:03;16.92;;;6.43;;
25345;SDS011;13300;51.032;3.710;2022-07-04T08:35:29;14.20;;;6.05;;
25345;SDS011;13300;51.032;3.710;2022-07-04T08:37:54;10.48;;;5.60;;
25345;SDS011;13300;51.032;3.710;2022-07-04T08:40:24;15.25;;;5.78;;
25345;SDS011;13300;51.032;3.710;2022-07-04T08:42:54;9.15;;;4.90;;
25345;SDS011;13300;51.032;3.710;2022-07-04T08:45:25;9.38;;;4.78;;
25345;SDS011;13300;51.032;3.710;2022-07-04T08:47:55;8.77;;;4.13;;
25345;SDS011;13300;51.032;3.710;2022-07-04T08:50:39;8.07;;;3.83;;
25345;SDS011;13300;51.032;3.710;2022-07-04T08:53:26;10.27;;;4.00;;
25345;SDS011;13300;51.032;3.710;2022-07-04T08:55:53;7.65;;;3.90;;
25345;SDS011;13300;51.032;3.710;2022-07-04T08:58:40;8.00;;;3.35;;
25345;SDS011;13300;51.032;3.710;2022-07-04T09:01:10;5.30;;;2.92;;
25345;SDS011;13300;51.032;3.710;2022-07-04T09:03:40;6.88;;;3.70;;
25345;SDS011;13300;51.032;3.710;2022-07-04T09:06:07;8.45;;;3.00;;
25345;SDS011;13300;51.032;3.710;2022-07-04T09:08:33;7.10;;;3.28;;
25345;SDS011;13300;51.032;3.710;2022-07-04T09:10:59;10.23;;;3.80;;
25345;SDS011;13300;51.032;3.710;2022-07-04T09:13:26;6.13;;;3.17;;
25345;SDS011;13300;51.032;3.710;2022-07-04T09:15:52;9.98;;;3.38;;
25345;SDS011;13300;51.032;3.710;2022-07-04T09:18:25;8.07;;;3.03;;
25345;SDS011;13300;51.032;3.710;2022-07-04T09:20:55;8.48;;;3.58;;
25345;SDS011;13300;51.032;3.710;2022-07-04T09:23:26;7.63;;;3.45;;
25345;SDS011;13300;51.032;3.710;2022-07-04T09:26:15;9.73;;;3.55;;
25345;SDS011;13300;51.032;3.710;2022-07-04T09:28:56;8.05;;;3.00;;
25345;SDS011;13300;51.032;3.710;2022-07-04T09:31:23;6.50;;;3.20;;
25345;SDS011;13300;51.032;3.710;2022-07-04T09:33:58;8.50;;;2.80;;
25345;SDS011;13300;51.032;3.710;2022-07-04T09:36:26;11.52;;;3.25;;
25345;SDS011;13300;51.032;3.710;2022-07-04T09:39:04;10.68;;;3.75;;
25345;SDS011;13300;51.032;3.710;2022-07-04T09:41:49;6.35;;;3.17;;
25345;SDS011;13300;51.032;3.710;2022-07-04T09:44:17;7.65;;;3.15;;
25345;SDS011;13300;51.032;3.710;2022-07-04T09:46:43;6.18;;;2.50;;
25345;SDS011;13300;51.032;3.710;2022-07-04T09:49:10;6.22;;;2.40;;
25345;SDS011;13300;51.032;3.710;2022-07-04T09:51:40;6.70;;;2.60;;
25345;SDS011;13300;51.032;3.710;2022-07-04T09:56:41;7.65;;;2.58;;
25345;SDS011;13300;51.032;3.710;2022-07-04T09:59:07;6.63;;;2.80;;
25345;SDS011;13300;51.032;3.710;2022-07-04T10:01:33;6.78;;;2.72;;
25345;SDS011;13300;51.032;3.710;2022-07-04T10:03:59;7.75;;;2.17;;
25345;SDS011;13300;51.032;3.710;2022-07-04T10:06:24;7.70;;;2.28;;
25345;SDS011;13300;51.032;3.710;2022-07-04T10:08:50;4.28;;;2.33;;
25345;SDS011;13300;51.032;3.710;2022-07-04T10:11:16;3.90;;;2.10;;
25345;SDS011;13300;51.032;3.710;2022-07-04T10:13:43;7.20;;;2.15;;
25345;SDS011;13300;51.032;3.710;2022-07-04T10:16:09;6.13;;;2.30;;
25345;SDS011;13300;51.032;3.710;2022-07-04T10:18:36;6.10;;;2.05;;
25345;SDS011;13300;51.032;3.710;2022-07-04T10:21:02;5.68;;;2.10;;
25345;SDS011;13300;51.032;3.710;2022-07-04T10:23:28;8.90;;;2.50;;
25345;SDS011;13300;51.032;3.710;2022-07-04T10:25:57;5.07;;;2.00;;
25345;SDS011;13300;51.032;3.710;2022-07-04T10:28:24;6.05;;;2.05;;
25345;SDS011;13300;51.032;3.710;2022-07-04T10:30:54;3.45;;;1.80;;
25345;SDS011;13300;51.032;3.710;2022-07-04T10:33:22;5.75;;;1.77;;
25345;SDS011;13300;51.032;3.710;2022-07-04T10:35:54;5.88;;;2.30;;
25345;SDS011;13300;51.032;3.710;2022-07-04T10:38:34;3.78;;;1.90;;
25345;SDS011;13300;51.032;3.710;2022-07-04T10:41:22;7.75;;;2.50;;
25345;SDS011;13300;51.032;3.710;2022-07-04T10:43:55;5.28;;;2.38;;
25345;SDS011;13300;51.032;3.710;2022-07-04T10:46:59;4.90;;;2.40;;
25345;SDS011;13300;51.032;3.710;2022-07-04T10:49:22;4.10;;;1.80;;
25345;SDS011;13300;51.032;3.710;2022-07-04T10:54:35;7.70;;;1.67;;
25345;SDS011;13300;51.032;3.710;2022-07-04T10:57:22;3.83;;;1.42;;
25345;SDS011;13300;51.032;3.710;2022-07-04T11:05:11;4.57;;;1.52;;
25345;SDS011;13300;51.032;3.710;2022-07-04T11:16:01;4.80;;;1.80;;
25345;SDS011;13300;51.032;3.710;2022-07-04T11:18:10;7.28;;;2.78;;
25345;SDS011;13300;51.032;3.710;2022-07-04T11:20:41;9.20;;;2.60;;
25345;SDS011;13300;51.032;3.710;2022-07-04T11:23:17;6.18;;;2.13;;
25345;SDS011;13300;51.032;3.710;2022-07-04T11:25:47;7.10;;;3.75;;
25345;SDS011;13300;51.032;3.710;2022-07-04T11:28:18;7.65;;;1.95;;
25345;SDS011;13300;51.032;3.710;2022-07-04T11:30:57;8.82;;;2.25;;
25345;SDS011;13300;51.032;3.710;2022-07-04T11:33:27;6.50;;;1.95;;
25345;SDS011;13300;51.032;3.710;2022-07-04T11:36:05;5.00;;;1.70;;
25345;SDS011;13300;51.032;3.710;2022-07-04T11:41:29;4.55;;;1.73;;
25345;SDS011;13300;51.032;3.710;2022-07-04T11:44:17;2.53;;;1.52;;
25345;SDS011;13300;51.032;3.710;2022-07-04T11:49:49;6.10;;;2.05;;
25345;SDS011;13300;51.032;3.710;2022-07-04T11:52:20;6.00;;;2.05;;
25345;SDS011;13300;51.032;3.710;2022-07-04T11:54:48;4.35;;;2.00;;
25345;SDS011;13300;51.032;3.710;2022-07-04T11:59:41;10.68;;;1.90;;
25345;SDS011;13300;51.032;3.710;2022-07-04T12:02:11;5.97;;;1.80;;
25345;SDS011;13300;51.032;3.710;2022-07-04T12:04:40;6.97;;;2.20;;
25345;SDS011;13300;51.032;3.710;2022-07-04T12:07:08;5.13;;;1.60;;
25345;SDS011;13300;51.032;3.710;2022-07-04T12:09:35;5.80;;;2.10;;
25345;SDS011;13300;51.032;3.710;2022-07-04T12:12:00;8.52;;;2.13;;
25345;SDS011;13300;51.032;3.710;2022-07-04T12:14:26;7.65;;;2.38;;
25345;SDS011;13300;51.032;3.710;2022-07-04T12:17:08;6.80;;;1.73;;
25345;SDS011;13300;51.032;3.710;2022-07-04T12:19:52;5.90;;;1.98;;
25345;SDS011;13300;51.032;3.710;2022-07-04T12:24:50;4.05;;;1.90;;
25345;SDS011;13300;51.032;3.710;2022-07-04T12:27:17;6.25;;;2.22;;
25345;SDS011;13300;51.032;3.710;2022-07-04T12:29:50;4.13;;;1.75;;
25345;SDS011;13300;51.032;3.710;2022-07-04T12:32:17;6.45;;;2.17;;
25345;SDS011;13300;51.032;3.710;2022-07-04T12:34:43;4.05;;;1.77;;
25345;SDS011;13300;51.032;3.710;2022-07-04T12:37:11;6.40;;;1.85;;
25345;SDS011;13300;51.032;3.710;2022-07-04T12:39:38;4.40;;;1.75;;
25345;SDS011;13300;51.032;3.710;2022-07-04T12:42:07;5.13;;;2.20;;
25345;SDS011;13300;51.032;3.710;2022-07-04T12:44:33;6.70;;;1.92;;
25345;SDS011;13300;51.032;3.710;2022-07-04T12:46:59;7.18;;;2.78;;
25345;SDS011;13300;51.032;3.710;2022-07-04T12:49:26;8.55;;;2.03;;
25345;SDS011;13300;51.032;3.710;2022-07-04T12:52:05;7.20;;;2.15;;
25345;SDS011;13300;51.032;3.710;2022-07-04T12:54:32;6.28;;;1.95;;
25345;SDS011;13300;51.032;3.710;2022-07-04T12:59:33;7.13;;;1.55;;
25345;SDS011;13300;51.032;3.710;2022-07-04T13:02:00;4.50;;;1.77;;
25345;SDS011;13300;51.032;3.710;2022-07-04T13:04:26;3.95;;;1.73;;
25345;SDS011;13300;51.032;3.710;2022-07-04T13:06:52;4.57;;;1.83;;
25345;SDS011;13300;51.032;3.710;2022-07-04T13:09:18;3.70;;;1.90;;
25345;SDS011;13300;51.032;3.710;2022-07-04T13:11:43;4.07;;;1.70;;
25345;SDS011;13300;51.032;3.710;2022-07-04T13:14:28;3.63;;;1.50;;
25345;SDS011;13300;51.032;3.710;2022-07-04T13:16:54;3.70;;;1.70;;
25345;SDS011;13300;51.032;3.710;2022-07-04T13:19:19;4.03;;;1.40;;
25345;SDS011;13300;51.032;3.710;2022-07-04T13:21:45;5.80;;;1.73;;
25345;SDS011;13300;51.032;3.710;2022-07-04T13:24:12;3.95;;;1.42;;
25345;SDS011;13300;51.032;3.710;2022-07-04T13:26:38;6.18;;;2.05;;
25345;SDS011;13300;51.032;3.710;2022-07-04T13:29:05;4.57;;;1.60;;
25345;SDS011;13300;51.032;3.710;2022-07-04T13:31:31;3.35;;;1.70;;
25345;SDS011;13300;51.032;3.710;2022-07-04T13:34:02;3.63;;;1.48;;
25345;SDS011;13300;51.032;3.710;2022-07-04T13:36:30;4.30;;;1.38;;
25345;SDS011;13300;51.032;3.710;2022-07-04T13:38:56;5.93;;;1.63;;
25345;SDS011;13300;51.032;3.710;2022-07-04T13:41:22;2.80;;;1.70;;
25345;SDS011;13300;51.032;3.710;2022-07-04T13:43:47;4.60;;;1.55;;
25345;SDS011;13300;51.032;3.710;2022-07-04T13:46:16;5.80;;;1.63;;
25345;SDS011;13300;51.032;3.710;2022-07-04T13:48:42;3.38;;;1.40;;
25345;SDS011;13300;51.032;3.710;2022-07-04T13:51:07;2.78;;;1.25;;
25345;SDS011;13300;51.032;3.710;2022-07-04T13:53:33;3.97;;;1.60;;
25345;SDS011;13300;51.032;3.710;2022-07-04T13:56:01;2.90;;;1.40;;
25345;SDS011;13300;51.032;3.710;2022-07-04T13:58:28;5.93;;;1.77;;
25345;SDS011;13300;51.032;3.710;2022-07-04T14:00:54;4.18;;;1.40;;
25345;SDS011;13300;51.032;3.710;2022-07-04T14:03:20;4.68;;;1.60;;
25345;SDS011;13300;51.032;3.710;2022-07-04T14:05:45;7.82;;;2.35;;
25345;SDS011;13300;51.032;3.710;2022-07-04T14:08:11;2.75;;;1.77;;
25345;SDS011;13300;51.032;3.710;2022-07-04T14:10:40;6.20;;;1.45;;
25345;SDS011;13300;51.032;3.710;2022-07-04T14:13:08;4.00;;;1.60;;
25345;SDS011;13300;51.032;3.710;2022-07-04T14:15:34;4.32;;;1.50;;
25345;SDS011;13300;51.032;3.710;2022-07-04T14:18:02;3.67;;;1.40;;
25345;SDS011;13300;51.032;3.710;2022-07-04T14:20:32;2.53;;;1.40;;
25345;SDS011;13300;51.032;3.710;2022-07-04T14:22:58;5.32;;;1.63;;
25345;SDS011;13300;51.032;3.710;2022-07-04T14:25:24;5.53;;;1.80;;
25345;SDS011;13300;51.032;3.710;2022-07-04T14:27:50;3.42;;;1.73;;
25345;SDS011;13300;51.032;3.710;2022-07-04T14:30:22;4.63;;;1.30;;
25345;SDS011;13300;51.032;3.710;2022-07-04T14:32:48;9.15;;;1.70;;
25345;SDS011;13300;51.032;3.710;2022-07-04T14:35:17;2.45;;;1.20;;
25345;SDS011;13300;51.032;3.710;2022-07-04T14:37:44;10.93;;;2.72;;
25345;SDS011;13300;51.032;3.710;2022-07-04T14:40:11;13.35;;;3.50;;
25345;SDS011;13300;51.032;3.710;2022-07-04T14:42:39;6.45;;;2.13;;
25345;SDS011;13300;51.032;3.710;2022-07-04T14:45:06;11.77;;;2.50;;
25345;SDS011;13300;51.032;3.710;2022-07-04T14:47:32;8.10;;;1.77;;
25345;SDS011;13300;51.032;3.710;2022-07-04T14:50:00;51.72;;;6.88;;
25345;SDS011;13300;51.032;3.710;2022-07-04T14:52:27;3.90;;;1.48;;
25345;SDS011;13300;51.032;3.710;2022-07-04T14:54:53;44.28;;;5.32;;
25345;SDS011;13300;51.032;3.710;2022-07-04T14:57:19;16.77;;;2.88;;
25345;SDS011;13300;51.032;3.710;2022-07-04T14:59:45;7.68;;;1.77;;
25345;SDS011;13300;51.032;3.710;2022-07-04T15:02:10;16.35;;;3.15;;
25345;SDS011;13300;51.032;3.710;2022-07-04T15:04:39;3.92;;;1.80;;
25345;SDS011;13300;51.032;3.710;2022-07-04T15:07:05;5.70;;;2.78;;
25345;SDS011;13300;51.032;3.710;2022-07-04T15:09:31;5.35;;;3.47;;
25345;SDS011;13300;51.032;3.710;2022-07-04T15:11:56;5.45;;;3.22;;
25345;SDS011;13300;51.032;3.710;2022-07-04T15:14:22;8.48;;;2.78;;
25345;SDS011;13300;51.032;3.710;2022-07-04T15:16:49;4.72;;;3.20;;